Ana Sayfa
METAR-TAF:

METAR-TAF

Havaalanları :

İrkutsk, Rusya

Enlem: 52-16N, Boylam: 104-19E, yükseklik: 513 m

Güncel hava durumu gözlemi

Rapor saat 07:00 UTC de 24 dakika önce yapıldı.
Rüzgar kuzey/kuzeybatıdan 8 kt
Sıcaklık 22°C
Nem 38%
Basınç 992 hPa
Görüş mesafesi 10 km veya daha fazla
1500 m altında bulut yok ve kümülonimbus yok

METAR: UIII 230700Z 34004MPS CAVOK 22/07 Q0992 R30/60D NOSIG RMK QFE700/0934

Saat: 15:24 (07:24 UTC)

Tahmin

Rapor saat 05:00 UTC de 2 saat ve 24 dakika önce yapıldı.
Ayın 23'si saat 06 UTC'den ayın 24'si saat 06 UTC'ye kadar geçerli Tahmin
Rüzgar batıdan 6 kt
Görüş mesafesi 10 km veya daha fazla
1500 ft yükseklikte parçalı çok bulutlu, Kümülonimbus.
Geçici
ayın 23'si saat 06 UTC'den ayın 23'si saat 24 UTC'ye kadar
Rüzgar değişken yönden 19 kt
gök gürültülü fırtına, hafif yağmur

TAF: UIII 230500Z 2306/2406 27003MPS 9999 BKN015CB TEMPO 2306/2324 VRB10MPS -TSRA

4.000'den fazla havaalanı için hava durumu gözlemleri ve tahminleri (METAR ve TAF raporları).

Kullanılabilir istasyonlar harita üzerinde sarı ve kırmızı noktalarla gösterilir.

İstasyonun adını görmek için fareyi noktanın üzerinde gezdirin.

Sonrasında hava gözlem ve tahminlerini görmek için tıklayın.

Haritayı değiştirmek için: yaklaştırmak için siyah artı işaretli yeşil düğmeye ve uzaklaştırmak için de eksi işaretli düğmeye hızla tıklayın; bitişik haritalar için yeşil okları kullanın.


METAR-TAF: